sensor_id;sensor_type;location;lat;lon;timestamp;temperature;humidity
5200;DHT22;2619;47.868;11.892;2024-01-15T00:01:17;-0.60;99.90
5200;DHT22;2619;47.868;11.892;2024-01-15T00:03:43;-0.50;99.90
5200;DHT22;2619;47.868;11.892;2024-01-15T00:06:08;-0.50;99.90
5200;DHT22;2619;47.868;11.892;2024-01-15T00:08:34;-0.40;99.90
5200;DHT22;2619;47.868;11.892;2024-01-15T00:10:59;-0.30;99.90
5200;DHT22;2619;47.868;11.892;2024-01-15T00:13:25;-0.30;99.90
5200;DHT22;2619;47.868;11.892;2024-01-15T00:15:50;-0.20;99.90
5200;DHT22;2619;47.868;11.892;2024-01-15T00:18:16;-0.10;99.90
5200;DHT22;2619;47.868;11.892;2024-01-15T00:20:42;0.00;99.90
5200;DHT22;2619;47.868;11.892;2024-01-15T00:23:07;-0.10;99.90
5200;DHT22;2619;47.868;11.892;2024-01-15T00:25:33;0.10;99.90
5200;DHT22;2619;47.868;11.892;2024-01-15T00:27:58;0.20;99.90
5200;DHT22;2619;47.868;11.892;2024-01-15T00:30:24;0.30;99.90
5200;DHT22;2619;47.868;11.892;2024-01-15T00:32:49;0.40;99.90
5200;DHT22;2619;47.868;11.892;2024-01-15T00:35:15;0.40;99.90
5200;DHT22;2619;47.868;11.892;2024-01-15T00:37:41;0.40;99.90
5200;DHT22;2619;47.868;11.892;2024-01-15T00:40:07;0.40;99.90
5200;DHT22;2619;47.868;11.892;2024-01-15T00:42:33;0.40;99.90
5200;DHT22;2619;47.868;11.892;2024-01-15T00:44:59;0.40;99.90
5200;DHT22;2619;47.868;11.892;2024-01-15T00:47:25;0.40;99.90
5200;DHT22;2619;47.868;11.892;2024-01-15T00:49:51;0.30;99.90
5200;DHT22;2619;47.868;11.892;2024-01-15T00:52:16;0.20;99.90
5200;DHT22;2619;47.868;11.892;2024-01-15T00:54:42;0.30;99.90
5200;DHT22;2619;47.868;11.892;2024-01-15T00:57:07;0.30;99.90
5200;DHT22;2619;47.868;11.892;2024-01-15T00:59:33;0.30;99.90
5200;DHT22;2619;47.868;11.892;2024-01-15T01:01:59;0.40;99.90
5200;DHT22;2619;47.868;11.892;2024-01-15T01:04:24;0.30;99.90
5200;DHT22;2619;47.868;11.892;2024-01-15T01:06:50;0.40;99.90
5200;DHT22;2619;47.868;11.892;2024-01-15T01:09:15;0.40;99.90
5200;DHT22;2619;47.868;11.892;2024-01-15T01:11:41;0.40;99.90
5200;DHT22;2619;47.868;11.892;2024-01-15T01:14:07;0.30;99.90
5200;DHT22;2619;47.868;11.892;2024-01-15T01:16:33;0.30;99.90
5200;DHT22;2619;47.868;11.892;2024-01-15T01:19:05;0.30;99.90
5200;DHT22;2619;47.868;11.892;2024-01-15T01:21:31;0.40;99.90
5200;DHT22;2619;47.868;11.892;2024-01-15T01:23:56;0.40;99.90
5200;DHT22;2619;47.868;11.892;2024-01-15T01:26:22;0.50;99.90
5200;DHT22;2619;47.868;11.892;2024-01-15T01:28:47;0.60;99.90
5200;DHT22;2619;47.868;11.892;2024-01-15T01:31:13;0.60;99.90
5200;DHT22;2619;47.868;11.892;2024-01-15T01:33:39;0.60;99.90
5200;DHT22;2619;47.868;11.892;2024-01-15T01:36:09;0.60;99.90
5200;DHT22;2619;47.868;11.892;2024-01-15T01:38:36;0.60;99.90
5200;DHT22;2619;47.868;11.892;2024-01-15T01:41:01;0.60;99.90
5200;DHT22;2619;47.868;11.892;2024-01-15T01:43:27;0.70;99.90
5200;DHT22;2619;47.868;11.892;2024-01-15T01:45:55;0.80;99.90
5200;DHT22;2619;47.868;11.892;2024-01-15T01:48:22;0.80;99.90
5200;DHT22;2619;47.868;11.892;2024-01-15T01:50:50;0.80;99.90
5200;DHT22;2619;47.868;11.892;2024-01-15T01:53:16;0.90;99.90
5200;DHT22;2619;47.868;11.892;2024-01-15T01:55:41;0.90;99.90
5200;DHT22;2619;47.868;11.892;2024-01-15T01:58:07;0.90;99.90
5200;DHT22;2619;47.868;11.892;2024-01-15T02:00:34;0.90;99.90
5200;DHT22;2619;47.868;11.892;2024-01-15T02:03:00;0.90;99.90
5200;DHT22;2619;47.868;11.892;2024-01-15T02:05:29;0.90;99.90
5200;DHT22;2619;47.868;11.892;2024-01-15T02:07:55;0.90;99.90
5200;DHT22;2619;47.868;11.892;2024-01-15T02:10:20;0.90;99.90
5200;DHT22;2619;47.868;11.892;2024-01-15T02:12:46;0.90;99.90
5200;DHT22;2619;47.868;11.892;2024-01-15T02:15:14;0.90;99.90
5200;DHT22;2619;47.868;11.892;2024-01-15T02:18:04;0.90;99.90
5200;DHT22;2619;47.868;11.892;2024-01-15T02:20:31;0.80;99.90
5200;DHT22;2619;47.868;11.892;2024-01-15T02:23:14;0.70;99.90
5200;DHT22;2619;47.868;11.892;2024-01-15T02:25:41;0.60;99.90
5200;DHT22;2619;47.868;11.892;2024-01-15T02:28:10;0.50;99.90
5200;DHT22;2619;47.868;11.892;2024-01-15T02:30:40;0.50;99.90
5200;DHT22;2619;47.868;11.892;2024-01-15T02:33:09;0.40;99.90
5200;DHT22;2619;47.868;11.892;2024-01-15T02:35:35;0.30;99.90
5200;DHT22;2619;47.868;11.892;2024-01-15T02:38:05;0.30;99.90
5200;DHT22;2619;47.868;11.892;2024-01-15T02:40:31;0.30;99.90
5200;DHT22;2619;47.868;11.892;2024-01-15T02:42:56;0.20;99.90
5200;DHT22;2619;47.868;11.892;2024-01-15T02:45:23;0.20;99.90
5200;DHT22;2619;47.868;11.892;2024-01-15T02:47:48;0.20;99.90
5200;DHT22;2619;47.868;11.892;2024-01-15T02:50:14;0.10;99.90
5200;DHT22;2619;47.868;11.892;2024-01-15T02:52:41;0.10;99.90
5200;DHT22;2619;47.868;11.892;2024-01-15T02:55:06;0.10;99.90
5200;DHT22;2619;47.868;11.892;2024-01-15T02:57:32;0.00;99.90
5200;DHT22;2619;47.868;11.892;2024-01-15T02:59:58;0.00;99.90
5200;DHT22;2619;47.868;11.892;2024-01-15T03:02:23;-0.10;99.90
5200;DHT22;2619;47.868;11.892;2024-01-15T03:04:49;-0.10;99.90
5200;DHT22;2619;47.868;11.892;2024-01-15T03:07:14;-0.20;99.90
5200;DHT22;2619;47.868;11.892;2024-01-15T03:09:40;-0.20;99.90
5200;DHT22;2619;47.868;11.892;2024-01-15T03:12:06;-0.30;99.90
5200;DHT22;2619;47.868;11.892;2024-01-15T03:14:31;-0.30;99.90
5200;DHT22;2619;47.868;11.892;2024-01-15T03:16:57;-0.40;99.90
5200;DHT22;2619;47.868;11.892;2024-01-15T03:19:22;-0.40;99.90
5200;DHT22;2619;47.868;11.892;2024-01-15T03:21:48;-0.40;99.90
5200;DHT22;2619;47.868;11.892;2024-01-15T03:24:14;-0.50;99.90
5200;DHT22;2619;47.868;11.892;2024-01-15T03:26:39;-0.40;99.90
5200;DHT22;2619;47.868;11.892;2024-01-15T03:29:05;-0.50;99.90
5200;DHT22;2619;47.868;11.892;2024-01-15T03:31:31;-0.50;99.90
5200;DHT22;2619;47.868;11.892;2024-01-15T03:33:57;-0.60;99.90
5200;DHT22;2619;47.868;11.892;2024-01-15T03:36:22;-0.60;99.90
5200;DHT22;2619;47.868;11.892;2024-01-15T03:38:48;-0.60;99.90
5200;DHT22;2619;47.868;11.892;2024-01-15T03:41:13;-0.60;99.90
5200;DHT22;2619;47.868;11.892;2024-01-15T03:43:39;-0.60;99.90
5200;DHT22;2619;47.868;11.892;2024-01-15T03:46:05;-0.70;99.90
5200;DHT22;2619;47.868;11.892;2024-01-15T03:48:31;-0.70;99.90
5200;DHT22;2619;47.868;11.892;2024-01-15T03:50:57;-0.70;99.90
5200;DHT22;2619;47.868;11.892;2024-01-15T03:53:22;-0.70;99.90
5200;DHT22;2619;47.868;11.892;2024-01-15T03:55:48;-0.80;99.90
5200;DHT22;2619;47.868;11.892;2024-01-15T03:58:14;-0.90;99.90
5200;DHT22;2619;47.868;11.892;2024-01-15T04:00:40;-0.90;99.90
5200;DHT22;2619;47.868;11.892;2024-01-15T04:03:06;-1.00;99.90
5200;DHT22;2619;47.868;11.892;2024-01-15T04:05:31;-1.00;99.90
5200;DHT22;2619;47.868;11.892;2024-01-15T04:07:57;-1.00;99.90
5200;DHT22;2619;47.868;11.892;2024-01-15T04:10:23;-1.00;99.90
5200;DHT22;2619;47.868;11.892;2024-01-15T04:12:48;-1.00;99.90
5200;DHT22;2619;47.868;11.892;2024-01-15T04:15:14;-1.00;99.90
5200;DHT22;2619;47.868;11.892;2024-01-15T04:17:40;-1.10;99.90
5200;DHT22;2619;47.868;11.892;2024-01-15T04:20:05;-1.10;99.90
5200;DHT22;2619;47.868;11.892;2024-01-15T04:22:32;-1.10;99.90
5200;DHT22;2619;47.868;11.892;2024-01-15T04:24:58;-1.20;99.90
5200;DHT22;2619;47.868;11.892;2024-01-15T04:27:24;-1.20;99.90
5200;DHT22;2619;47.868;11.892;2024-01-15T04:29:49;-1.10;99.90
5200;DHT22;2619;47.868;11.892;2024-01-15T04:32:15;-1.10;99.90
5200;DHT22;2619;47.868;11.892;2024-01-15T04:34:40;-1.20;99.90
5200;DHT22;2619;47.868;11.892;2024-01-15T04:37:06;-1.20;99.90
5200;DHT22;2619;47.868;11.892;2024-01-15T04:39:32;-1.20;99.90
5200;DHT22;2619;47.868;11.892;2024-01-15T04:41:57;-1.10;99.90
5200;DHT22;2619;47.868;11.892;2024-01-15T04:44:23;-1.10;99.90
5200;DHT22;2619;47.868;11.892;2024-01-15T04:46:48;-1.20;99.90
5200;DHT22;2619;47.868;11.892;2024-01-15T04:49:14;-1.20;99.90
5200;DHT22;2619;47.868;11.892;2024-01-15T04:51:39;-1.20;99.90
5200;DHT22;2619;47.868;11.892;2024-01-15T04:54:05;-1.20;99.90
5200;DHT22;2619;47.868;11.892;2024-01-15T04:56:30;-1.20;99.90
5200;DHT22;2619;47.868;11.892;2024-01-15T04:58:56;-1.20;99.90
5200;DHT22;2619;47.868;11.892;2024-01-15T05:01:21;-1.20;99.90
5200;DHT22;2619;47.868;11.892;2024-01-15T05:03:47;-1.20;99.90
5200;DHT22;2619;47.868;11.892;2024-01-15T05:06:13;-1.20;99.90
5200;DHT22;2619;47.868;11.892;2024-01-15T05:08:38;-1.20;99.90
5200;DHT22;2619;47.868;11.892;2024-01-15T05:11:04;-1.20;99.90
5200;DHT22;2619;47.868;11.892;2024-01-15T05:13:29;-1.20;99.90
5200;DHT22;2619;47.868;11.892;2024-01-15T05:15:55;-1.20;99.90
5200;DHT22;2619;47.868;11.892;2024-01-15T05:18:20;-1.30;99.90
5200;DHT22;2619;47.868;11.892;2024-01-15T05:20:46;-1.30;99.90
5200;DHT22;2619;47.868;11.892;2024-01-15T05:23:11;-1.20;99.90
5200;DHT22;2619;47.868;11.892;2024-01-15T05:25:37;-1.30;99.90
5200;DHT22;2619;47.868;11.892;2024-01-15T05:28:04;-1.20;99.90
5200;DHT22;2619;47.868;11.892;2024-01-15T05:30:30;-1.20;99.90
5200;DHT22;2619;47.868;11.892;2024-01-15T05:32:56;-1.20;99.90
5200;DHT22;2619;47.868;11.892;2024-01-15T05:35:22;-1.20;99.90
5200;DHT22;2619;47.868;11.892;2024-01-15T05:37:49;-1.20;99.90
5200;DHT22;2619;47.868;11.892;2024-01-15T05:40:15;-1.30;99.90
5200;DHT22;2619;47.868;11.892;2024-01-15T05:42:41;-1.30;99.90
5200;DHT22;2619;47.868;11.892;2024-01-15T05:45:07;-1.30;99.90
5200;DHT22;2619;47.868;11.892;2024-01-15T05:47:32;-1.30;99.90
5200;DHT22;2619;47.868;11.892;2024-01-15T05:50:00;-1.30;99.90
5200;DHT22;2619;47.868;11.892;2024-01-15T05:52:25;-1.30;99.90
5200;DHT22;2619;47.868;11.892;2024-01-15T05:54:51;-1.30;99.90
5200;DHT22;2619;47.868;11.892;2024-01-15T05:57:17;-1.30;99.90
5200;DHT22;2619;47.868;11.892;2024-01-15T05:59:44;-1.30;99.90
5200;DHT22;2619;47.868;11.892;2024-01-15T06:02:09;-1.30;99.90
5200;DHT22;2619;47.868;11.892;2024-01-15T06:04:35;-1.30;99.90
5200;DHT22;2619;47.868;11.892;2024-01-15T06:07:00;-1.30;99.90
5200;DHT22;2619;47.868;11.892;2024-01-15T06:09:26;-1.40;99.90
5200;DHT22;2619;47.868;11.892;2024-01-15T06:11:52;-1.40;99.90
5200;DHT22;2619;47.868;11.892;2024-01-15T06:14:17;-1.30;99.90
5200;DHT22;2619;47.868;11.892;2024-01-15T06:16:43;-1.30;99.90
5200;DHT22;2619;47.868;11.892;2024-01-15T06:19:08;-1.30;99.90
5200;DHT22;2619;47.868;11.892;2024-01-15T06:21:34;-1.30;99.90
5200;DHT22;2619;47.868;11.892;2024-01-15T06:24:00;-1.40;99.90
5200;DHT22;2619;47.868;11.892;2024-01-15T06:26:25;-1.40;99.90
5200;DHT22;2619;47.868;11.892;2024-01-15T06:28:51;-1.40;99.90
5200;DHT22;2619;47.868;11.892;2024-01-15T06:31:16;-1.40;99.90
5200;DHT22;2619;47.868;11.892;2024-01-15T06:33:42;-1.40;99.90
5200;DHT22;2619;47.868;11.892;2024-01-15T06:36:08;-1.40;99.90
5200;DHT22;2619;47.868;11.892;2024-01-15T06:38:33;-1.40;99.90
5200;DHT22;2619;47.868;11.892;2024-01-15T06:40:59;-1.40;99.90
5200;DHT22;2619;47.868;11.892;2024-01-15T06:43:25;-1.40;99.90
5200;DHT22;2619;47.868;11.892;2024-01-15T06:45:50;-1.30;99.90
5200;DHT22;2619;47.868;11.892;2024-01-15T06:48:16;-1.30;99.90
5200;DHT22;2619;47.868;11.892;2024-01-15T06:50:45;-1.30;99.90
5200;DHT22;2619;47.868;11.892;2024-01-15T06:53:11;-1.30;99.90
5200;DHT22;2619;47.868;11.892;2024-01-15T06:55:37;-1.30;99.90
5200;DHT22;2619;47.868;11.892;2024-01-15T06:58:03;-1.30;99.90
5200;DHT22;2619;47.868;11.892;2024-01-15T07:00:29;-1.30;99.90
5200;DHT22;2619;47.868;11.892;2024-01-15T07:02:54;-1.30;99.90
5200;DHT22;2619;47.868;11.892;2024-01-15T07:05:23;-1.30;99.90
5200;DHT22;2619;47.868;11.892;2024-01-15T07:07:49;-1.30;99.90
5200;DHT22;2619;47.868;11.892;2024-01-15T07:10:15;-1.30;99.90
5200;DHT22;2619;47.868;11.892;2024-01-15T07:12:44;-1.30;99.90
5200;DHT22;2619;47.868;11.892;2024-01-15T07:15:10;-1.30;99.90
5200;DHT22;2619;47.868;11.892;2024-01-15T07:17:36;-1.30;99.90
5200;DHT22;2619;47.868;11.892;2024-01-15T07:20:05;-1.30;99.90
5200;DHT22;2619;47.868;11.892;2024-01-15T07:22:33;-1.30;99.90
5200;DHT22;2619;47.868;11.892;2024-01-15T07:24:59;-1.30;99.90
5200;DHT22;2619;47.868;11.892;2024-01-15T07:27:24;-1.30;99.90
5200;DHT22;2619;47.868;11.892;2024-01-15T07:29:50;-1.30;99.90
5200;DHT22;2619;47.868;11.892;2024-01-15T07:32:15;-1.30;99.90
5200;DHT22;2619;47.868;11.892;2024-01-15T07:34:41;-1.40;99.90
5200;DHT22;2619;47.868;11.892;2024-01-15T07:37:06;-1.40;99.90
5200;DHT22;2619;47.868;11.892;2024-01-15T07:39:33;-1.30;99.90
5200;DHT22;2619;47.868;11.892;2024-01-15T07:41:58;-1.30;99.90
5200;DHT22;2619;47.868;11.892;2024-01-15T07:44:24;-1.30;99.90
5200;DHT22;2619;47.868;11.892;2024-01-15T07:46:49;-1.30;99.90
5200;DHT22;2619;47.868;11.892;2024-01-15T07:49:15;-1.30;99.90
5200;DHT22;2619;47.868;11.892;2024-01-15T07:51:42;-1.30;99.90
5200;DHT22;2619;47.868;11.892;2024-01-15T07:54:09;-1.20;99.90
5200;DHT22;2619;47.868;11.892;2024-01-15T07:56:59;-1.20;99.90
5200;DHT22;2619;47.868;11.892;2024-01-15T07:59:26;-1.20;99.90
5200;DHT22;2619;47.868;11.892;2024-01-15T08:01:52;-1.20;99.90
5200;DHT22;2619;47.868;11.892;2024-01-15T08:04:18;-1.10;99.90
5200;DHT22;2619;47.868;11.892;2024-01-15T08:06:44;-1.10;99.90
5200;DHT22;2619;47.868;11.892;2024-01-15T08:09:10;-1.00;99.90
5200;DHT22;2619;47.868;11.892;2024-01-15T08:11:38;-1.10;99.90
5200;DHT22;2619;47.868;11.892;2024-01-15T08:14:04;-1.10;99.90
5200;DHT22;2619;47.868;11.892;2024-01-15T08:16:29;-1.10;99.90
5200;DHT22;2619;47.868;11.892;2024-01-15T08:18:55;-1.10;99.90
5200;DHT22;2619;47.868;11.892;2024-01-15T08:21:21;-1.00;99.90
5200;DHT22;2619;47.868;11.892;2024-01-15T08:23:47;-1.00;99.90
5200;DHT22;2619;47.868;11.892;2024-01-15T08:26:13;-0.90;99.90
5200;DHT22;2619;47.868;11.892;2024-01-15T08:28:38;-0.90;99.90
5200;DHT22;2619;47.868;11.892;2024-01-15T08:31:04;-0.80;99.90
5200;DHT22;2619;47.868;11.892;2024-01-15T08:33:29;-0.70;99.90
5200;DHT22;2619;47.868;11.892;2024-01-15T08:35:55;-0.70;99.90
5200;DHT22;2619;47.868;11.892;2024-01-15T08:38:21;-0.70;99.90
5200;DHT22;2619;47.868;11.892;2024-01-15T08:40:46;-0.60;99.90
5200;DHT22;2619;47.868;11.892;2024-01-15T08:43:12;-0.60;99.90
5200;DHT22;2619;47.868;11.892;2024-01-15T08:45:38;-0.50;99.90
5200;DHT22;2619;47.868;11.892;2024-01-15T08:48:04;-0.40;99.90
5200;DHT22;2619;47.868;11.892;2024-01-15T08:50:31;-0.40;99.90
5200;DHT22;2619;47.868;11.892;2024-01-15T08:52:57;-0.40;99.90
5200;DHT22;2619;47.868;11.892;2024-01-15T08:55:23;-0.40;99.90
5200;DHT22;2619;47.868;11.892;2024-01-15T08:57:49;-0.40;99.90
5200;DHT22;2619;47.868;11.892;2024-01-15T09:00:15;-0.40;99.90
5200;DHT22;2619;47.868;11.892;2024-01-15T09:02:40;-0.40;99.90
5200;DHT22;2619;47.868;11.892;2024-01-15T09:05:07;-0.40;99.90
5200;DHT22;2619;47.868;11.892;2024-01-15T09:07:32;-0.40;99.90
5200;DHT22;2619;47.868;11.892;2024-01-15T09:09:58;-0.30;99.90
5200;DHT22;2619;47.868;11.892;2024-01-15T09:12:27;-0.30;99.90
5200;DHT22;2619;47.868;11.892;2024-01-15T09:14:53;-0.30;99.90
5200;DHT22;2619;47.868;11.892;2024-01-15T09:17:19;-0.20;99.90
5200;DHT22;2619;47.868;11.892;2024-01-15T09:19:45;-0.10;99.90
5200;DHT22;2619;47.868;11.892;2024-01-15T09:22:12;0.00;99.90
5200;DHT22;2619;47.868;11.892;2024-01-15T09:24:40;0.10;99.90
5200;DHT22;2619;47.868;11.892;2024-01-15T09:27:06;0.20;99.90
5200;DHT22;2619;47.868;11.892;2024-01-15T09:29:31;0.20;99.90
5200;DHT22;2619;47.868;11.892;2024-01-15T09:31:57;0.10;99.90
5200;DHT22;2619;47.868;11.892;2024-01-15T09:34:22;0.20;99.90
5200;DHT22;2619;47.868;11.892;2024-01-15T09:36:48;0.20;99.90
5200;DHT22;2619;47.868;11.892;2024-01-15T09:39:14;0.30;99.90
5200;DHT22;2619;47.868;11.892;2024-01-15T09:41:41;0.30;99.90
5200;DHT22;2619;47.868;11.892;2024-01-15T09:44:06;0.30;99.90
5200;DHT22;2619;47.868;11.892;2024-01-15T09:46:35;0.20;99.90
5200;DHT22;2619;47.868;11.892;2024-01-15T09:49:01;0.20;99.90
5200;DHT22;2619;47.868;11.892;2024-01-15T09:51:31;0.30;99.90
5200;DHT22;2619;47.868;11.892;2024-01-15T09:53:57;0.30;99.90
5200;DHT22;2619;47.868;11.892;2024-01-15T09:56:23;0.30;99.90
5200;DHT22;2619;47.868;11.892;2024-01-15T09:58:50;0.30;99.90
5200;DHT22;2619;47.868;11.892;2024-01-15T10:01:17;0.40;99.90
5200;DHT22;2619;47.868;11.892;2024-01-15T10:03:43;0.40;99.90
5200;DHT22;2619;47.868;11.892;2024-01-15T10:06:11;0.40;99.90
5200;DHT22;2619;47.868;11.892;2024-01-15T10:08:38;0.30;99.90
5200;DHT22;2619;47.868;11.892;2024-01-15T10:11:04;0.30;99.90
5200;DHT22;2619;47.868;11.892;2024-01-15T10:13:30;0.40;99.90
5200;DHT22;2619;47.868;11.892;2024-01-15T10:15:56;0.50;99.90
5200;DHT22;2619;47.868;11.892;2024-01-15T10:18:23;0.40;99.90
5200;DHT22;2619;47.868;11.892;2024-01-15T10:20:49;0.50;99.90
5200;DHT22;2619;47.868;11.892;2024-01-15T10:23:15;0.50;99.90
5200;DHT22;2619;47.868;11.892;2024-01-15T10:25:42;0.50;99.90
5200;DHT22;2619;47.868;11.892;2024-01-15T10:28:08;0.40;99.90
5200;DHT22;2619;47.868;11.892;2024-01-15T10:30:35;0.50;99.90
5200;DHT22;2619;47.868;11.892;2024-01-15T10:33:04;0.40;99.90
5200;DHT22;2619;47.868;11.892;2024-01-15T10:35:31;0.40;99.90
5200;DHT22;2619;47.868;11.892;2024-01-15T10:37:59;0.40;99.90
5200;DHT22;2619;47.868;11.892;2024-01-15T10:40:24;0.30;99.90
5200;DHT22;2619;47.868;11.892;2024-01-15T10:42:50;0.40;99.90
5200;DHT22;2619;47.868;11.892;2024-01-15T10:45:16;0.50;99.90
5200;DHT22;2619;47.868;11.892;2024-01-15T10:47:42;0.50;99.90
5200;DHT22;2619;47.868;11.892;2024-01-15T10:50:09;0.50;99.90
5200;DHT22;2619;47.868;11.892;2024-01-15T10:52:38;0.50;99.90
5200;DHT22;2619;47.868;11.892;2024-01-15T10:55:08;0.50;99.90
5200;DHT22;2619;47.868;11.892;2024-01-15T10:57:38;0.60;99.90
5200;DHT22;2619;47.868;11.892;2024-01-15T11:00:04;0.50;99.90
5200;DHT22;2619;47.868;11.892;2024-01-15T11:02:32;0.70;99.90
5200;DHT22;2619;47.868;11.892;2024-01-15T11:04:59;0.60;99.90
5200;DHT22;2619;47.868;11.892;2024-01-15T11:07:26;0.60;99.90
5200;DHT22;2619;47.868;11.892;2024-01-15T11:09:52;0.40;99.90
5200;DHT22;2619;47.868;11.892;2024-01-15T11:12:18;0.40;99.90
5200;DHT22;2619;47.868;11.892;2024-01-15T11:14:48;0.30;99.90
5200;DHT22;2619;47.868;11.892;2024-01-15T11:17:15;0.30;99.90
5200;DHT22;2619;47.868;11.892;2024-01-15T11:22:08;0.30;99.90
5200;DHT22;2619;47.868;11.892;2024-01-15T11:24:38;0.50;99.90
5200;DHT22;2619;47.868;11.892;2024-01-15T11:27:05;0.50;99.90
5200;DHT22;2619;47.868;11.892;2024-01-15T11:29:33;0.50;99.90
5200;DHT22;2619;47.868;11.892;2024-01-15T11:34:57;0.70;99.90
5200;DHT22;2619;47.868;11.892;2024-01-15T11:37:25;0.70;99.90
5200;DHT22;2619;47.868;11.892;2024-01-15T11:39:52;0.70;99.90
5200;DHT22;2619;47.868;11.892;2024-01-15T11:42:20;0.80;99.90
5200;DHT22;2619;47.868;11.892;2024-01-15T11:44:46;0.70;99.90
5200;DHT22;2619;47.868;11.892;2024-01-15T11:47:12;0.80;99.90
5200;DHT22;2619;47.868;11.892;2024-01-15T11:50:03;0.90;99.90
5200;DHT22;2619;47.868;11.892;2024-01-15T11:52:33;0.80;99.90
5200;DHT22;2619;47.868;11.892;2024-01-15T11:55:19;0.80;99.90
5200;DHT22;2619;47.868;11.892;2024-01-15T11:57:53;0.60;99.90
5200;DHT22;2619;47.868;11.892;2024-01-15T12:00:20;0.50;99.90
5200;DHT22;2619;47.868;11.892;2024-01-15T12:02:47;0.60;99.90
5200;DHT22;2619;47.868;11.892;2024-01-15T12:05:15;0.60;99.90
5200;DHT22;2619;47.868;11.892;2024-01-15T12:07:45;0.50;99.90
5200;DHT22;2619;47.868;11.892;2024-01-15T12:10:13;0.50;99.90
5200;DHT22;2619;47.868;11.892;2024-01-15T12:12:48;0.50;99.90
5200;DHT22;2619;47.868;11.892;2024-01-15T12:15:15;0.40;99.90
5200;DHT22;2619;47.868;11.892;2024-01-15T12:17:41;0.40;99.90
5200;DHT22;2619;47.868;11.892;2024-01-15T12:20:07;0.50;99.90
5200;DHT22;2619;47.868;11.892;2024-01-15T12:22:32;0.40;99.90
5200;DHT22;2619;47.868;11.892;2024-01-15T12:24:58;0.40;99.90
5200;DHT22;2619;47.868;11.892;2024-01-15T12:27:24;0.40;99.90
5200;DHT22;2619;47.868;11.892;2024-01-15T12:29:50;0.50;99.90
5200;DHT22;2619;47.868;11.892;2024-01-15T12:32:15;0.50;99.90
5200;DHT22;2619;47.868;11.892;2024-01-15T12:34:42;0.50;99.90
5200;DHT22;2619;47.868;11.892;2024-01-15T12:37:08;0.60;99.90
5200;DHT22;2619;47.868;11.892;2024-01-15T12:39:34;0.60;99.90
5200;DHT22;2619;47.868;11.892;2024-01-15T12:42:01;0.50;99.90
5200;DHT22;2619;47.868;11.892;2024-01-15T12:44:27;0.70;99.90
5200;DHT22;2619;47.868;11.892;2024-01-15T12:46:53;0.70;99.90
5200;DHT22;2619;47.868;11.892;2024-01-15T12:49:19;0.80;99.90
5200;DHT22;2619;47.868;11.892;2024-01-15T12:51:52;0.70;99.90
5200;DHT22;2619;47.868;11.892;2024-01-15T12:54:18;0.60;99.90
5200;DHT22;2619;47.868;11.892;2024-01-15T12:56:44;0.60;99.90
5200;DHT22;2619;47.868;11.892;2024-01-15T12:59:09;0.60;99.90
5200;DHT22;2619;47.868;11.892;2024-01-15T13:01:35;0.60;99.90
5200;DHT22;2619;47.868;11.892;2024-01-15T13:04:01;0.60;99.90
5200;DHT22;2619;47.868;11.892;2024-01-15T13:06:27;0.60;99.90
5200;DHT22;2619;47.868;11.892;2024-01-15T13:08:52;0.50;99.90
5200;DHT22;2619;47.868;11.892;2024-01-15T13:11:18;0.60;99.90
5200;DHT22;2619;47.868;11.892;2024-01-15T13:13:43;0.80;99.90
5200;DHT22;2619;47.868;11.892;2024-01-15T13:16:09;0.90;99.90
5200;DHT22;2619;47.868;11.892;2024-01-15T13:18:34;1.10;99.90
5200;DHT22;2619;47.868;11.892;2024-01-15T13:21:00;0.90;99.90
5200;DHT22;2619;47.868;11.892;2024-01-15T13:23:28;1.00;99.90
5200;DHT22;2619;47.868;11.892;2024-01-15T13:25:53;1.00;99.90
5200;DHT22;2619;47.868;11.892;2024-01-15T13:28:20;0.90;99.90
5200;DHT22;2619;47.868;11.892;2024-01-15T13:30:46;0.90;99.90
5200;DHT22;2619;47.868;11.892;2024-01-15T13:33:13;0.90;99.90
5200;DHT22;2619;47.868;11.892;2024-01-15T13:35:38;0.90;99.90
5200;DHT22;2619;47.868;11.892;2024-01-15T13:38:04;1.00;99.90
5200;DHT22;2619;47.868;11.892;2024-01-15T13:40:30;1.00;99.90
5200;DHT22;2619;47.868;11.892;2024-01-15T13:42:55;0.90;99.90
5200;DHT22;2619;47.868;11.892;2024-01-15T13:45:21;0.90;99.90
5200;DHT22;2619;47.868;11.892;2024-01-15T13:47:46;1.00;99.90
5200;DHT22;2619;47.868;11.892;2024-01-15T13:50:12;1.00;99.90
5200;DHT22;2619;47.868;11.892;2024-01-15T13:52:38;0.90;99.90
5200;DHT22;2619;47.868;11.892;2024-01-15T13:55:03;0.90;99.90
5200;DHT22;2619;47.868;11.892;2024-01-15T13:57:29;0.90;99.90
5200;DHT22;2619;47.868;11.892;2024-01-15T13:59:55;1.00;99.90
5200;DHT22;2619;47.868;11.892;2024-01-15T14:02:20;1.00;99.90
5200;DHT22;2619;47.868;11.892;2024-01-15T14:04:47;1.10;99.90
5200;DHT22;2619;47.868;11.892;2024-01-15T14:07:12;1.00;99.90
5200;DHT22;2619;47.868;11.892;2024-01-15T14:09:38;0.90;99.90
5200;DHT22;2619;47.868;11.892;2024-01-15T14:12:04;1.00;99.90
5200;DHT22;2619;47.868;11.892;2024-01-15T14:14:30;1.00;99.90
5200;DHT22;2619;47.868;11.892;2024-01-15T14:16:55;1.00;99.90
5200;DHT22;2619;47.868;11.892;2024-01-15T14:19:22;1.00;99.90
5200;DHT22;2619;47.868;11.892;2024-01-15T14:21:47;1.00;99.90
5200;DHT22;2619;47.868;11.892;2024-01-15T14:24:13;0.90;99.90
5200;DHT22;2619;47.868;11.892;2024-01-15T14:26:38;0.90;99.90
5200;DHT22;2619;47.868;11.892;2024-01-15T14:29:04;0.90;99.90
5200;DHT22;2619;47.868;11.892;2024-01-15T14:31:31;0.90;99.90
5200;DHT22;2619;47.868;11.892;2024-01-15T14:33:58;0.90;99.90
5200;DHT22;2619;47.868;11.892;2024-01-15T14:36:24;0.80;99.90
5200;DHT22;2619;47.868;11.892;2024-01-15T14:38:50;0.80;99.90
5200;DHT22;2619;47.868;11.892;2024-01-15T14:41:16;0.80;99.90
5200;DHT22;2619;47.868;11.892;2024-01-15T14:43:42;0.70;99.90
5200;DHT22;2619;47.868;11.892;2024-01-15T14:46:08;0.70;99.90
5200;DHT22;2619;47.868;11.892;2024-01-15T14:48:33;0.70;99.90
5200;DHT22;2619;47.868;11.892;2024-01-15T14:50:59;0.70;99.90
5200;DHT22;2619;47.868;11.892;2024-01-15T14:53:24;0.60;99.90
5200;DHT22;2619;47.868;11.892;2024-01-15T14:55:50;0.50;99.90
5200;DHT22;2619;47.868;11.892;2024-01-15T14:58:15;0.50;99.90
5200;DHT22;2619;47.868;11.892;2024-01-15T15:00:41;0.50;99.90
5200;DHT22;2619;47.868;11.892;2024-01-15T15:03:06;0.50;99.90
5200;DHT22;2619;47.868;11.892;2024-01-15T15:05:32;0.40;99.90
5200;DHT22;2619;47.868;11.892;2024-01-15T15:07:58;0.40;99.90
5200;DHT22;2619;47.868;11.892;2024-01-15T15:10:23;0.40;99.90
5200;DHT22;2619;47.868;11.892;2024-01-15T15:12:49;0.40;99.90
5200;DHT22;2619;47.868;11.892;2024-01-15T15:15:14;0.30;99.90
5200;DHT22;2619;47.868;11.892;2024-01-15T15:17:42;0.40;99.90
5200;DHT22;2619;47.868;11.892;2024-01-15T15:20:08;0.40;99.90
5200;DHT22;2619;47.868;11.892;2024-01-15T15:22:34;0.40;99.90
5200;DHT22;2619;47.868;11.892;2024-01-15T15:24:59;0.40;99.90
5200;DHT22;2619;47.868;11.892;2024-01-15T15:27:25;0.40;99.90
5200;DHT22;2619;47.868;11.892;2024-01-15T15:29:53;0.40;99.90
5200;DHT22;2619;47.868;11.892;2024-01-15T15:32:18;0.40;99.90
5200;DHT22;2619;47.868;11.892;2024-01-15T15:34:44;0.40;99.90
5200;DHT22;2619;47.868;11.892;2024-01-15T15:37:09;0.40;99.90
5200;DHT22;2619;47.868;11.892;2024-01-15T15:39:35;0.40;99.90
5200;DHT22;2619;47.868;11.892;2024-01-15T15:42:00;0.40;99.90
5200;DHT22;2619;47.868;11.892;2024-01-15T15:44:26;0.30;99.90
5200;DHT22;2619;47.868;11.892;2024-01-15T15:46:51;0.30;99.90
5200;DHT22;2619;47.868;11.892;2024-01-15T15:49:17;0.30;99.90
5200;DHT22;2619;47.868;11.892;2024-01-15T15:51:43;0.30;99.90
5200;DHT22;2619;47.868;11.892;2024-01-15T15:54:08;0.30;99.90